Time;durP1;ratioP1;P1;durP2;ratioP2;P2;SDS_P1;SDS_P2;PMS_P1;PMS_P2;Temp;Humidity;BMP_temperature;BMP_pressure;BME280_temperature;BME280_humidity;BME280_pressure;Samples;Min_cycle;Max_cycle;Signal;HPM_P1;HPM_P2
2022/11/16 00:01:44;;;;;;;7.35;4.50;;;;;;;;;;5023577;28;20053;-90
2022/11/16 00:04:13;;;;;;;5.15;3.47;;;;;;;;;;5006647;28;20025;-88
2022/11/16 00:06:42;;;;;;;8.07;4.35;;;;;;;;;;5009515;28;20031;-87
2022/11/16 01:57:51;;;;;;;3.90;1.80;;;12.00;99.90;;;;;;4995668;28;20524;-90
2022/11/16 02:00:55;;;;;;;4.43;1.73;;;12.30;99.90;;;;;;4983157;28;20050;-90
2022/11/16 02:03:21;;;;;;;3.20;1.85;;;11.80;99.90;;;;;;4984116;28;20095;-91
2022/11/16 02:06:25;;;;;;;3.10;1.63;;;11.90;99.90;;;;;;4998956;28;20023;-91
2022/11/16 02:12:30;;;;;;;2.92;1.55;;;12.50;99.90;;;;;;4957326;29;20039;-88
2022/11/16 02:15:28;;;;;;;2.80;1.52;;;14.10;99.90;;;;;;4979705;28;20461;-88
2022/11/16 02:18:22;;;;;;;3.75;1.45;;;11.80;99.90;;;;;;5013291;28;20055;-89
2022/11/16 02:21:09;;;;;;;3.20;1.30;;;11.50;99.90;;;;;;4979471;28;20087;-88
2022/11/16 02:24:32;;;;;;;3.20;1.48;;;11.80;99.90;;;;;;4994973;28;20022;-90
2022/11/16 02:27:27;;;;;;;2.10;1.38;;;12.60;99.90;;;;;;5013193;28;20108;-89
2022/11/16 02:30:49;;;;;;;2.00;1.20;;;11.80;99.90;;;;;;4989645;28;20038;-89
2022/11/16 02:34:01;;;;;;;3.10;1.48;;;13.90;99.90;;;;;;4976972;28;20488;-87
2022/11/16 02:36:27;;;;;;;4.05;1.25;;;11.80;99.90;;;;;;4979235;28;20035;-87
2022/11/16 02:39:08;;;;;;;4.70;1.50;;;11.60;99.90;;;;;;4967416;28;20035;-90
2022/11/16 02:41:44;;;;;;;3.03;1.10;;;12.60;99.90;;;;;;4993984;28;20114;-90
2022/11/16 02:44:57;;;;;;;2.08;1.10;;;12.90;99.90;;;;;;4986307;28;20081;-86
2022/11/16 02:47:28;;;;;;;1.60;0.90;;;11.70;99.90;;;;;;4974037;28;20058;-88
2022/11/16 02:50:26;;;;;;;1.92;1.10;;;10.30;99.90;;;;;;4976705;28;20023;-90
2022/11/16 02:52:52;;;;;;;1.90;1.10;;;11.50;99.90;;;;;;4977670;28;20109;-90
2022/11/16 02:55:42;;;;;;;3.25;1.50;;;13.40;99.90;;;;;;4970679;28;20011;-90
2022/11/16 02:58:39;;;;;;;2.55;1.20;;;10.50;99.90;;;;;;4974172;28;20106;-88
2022/11/16 03:01:44;;;;;;;3.75;1.30;;;11.50;99.90;;;;;;4997477;28;20027;-88
2022/11/16 03:05:02;;;;;;;3.38;1.00;;;12.20;99.90;;;;;;4992884;28;20031;-87
2022/11/16 03:08:02;;;;;;;2.08;1.25;;;11.50;99.90;;;;;;4987003;28;20496;-87
2022/11/16 03:14:37;;;;;;;2.78;1.42;;;11.50;99.90;;;;;;4990498;28;20038;-88
2022/11/16 03:18:00;;;;;;;2.03;1.10;;;11.40;99.90;;;;;;4974858;28;20051;-89
2022/11/16 03:21:17;;;;;;;3.42;1.20;;;11.60;99.90;;;;;;4960190;28;20128;-88
2022/11/16 03:24:18;;;;;;;3.42;1.33;;;11.50;99.90;;;;;;4975606;28;20047;-89
2022/11/16 03:27:40;;;;;;;2.53;1.20;;;11.50;99.90;;;;;;4994720;28;20050;-88
2022/11/16 03:31:03;;;;;;;1.65;0.95;;;12.50;99.90;;;;;;4995957;28;20042;-88
2022/11/16 03:34:15;;;;;;;2.13;1.10;;;10.90;99.90;;;;;;4995532;28;20030;-86
2022/11/16 03:37:32;;;;;;;2.05;1.20;;;11.50;99.90;;;;;;4996314;28;20047;-87
2022/11/16 03:40:49;;;;;;;2.65;1.23;;;11.40;99.90;;;;;;4974273;29;20083;-90
2022/11/16 03:43:53;;;;;;;2.42;1.42;;;11.60;99.90;;;;;;4977218;29;20079;-90
2022/11/16 03:46:28;;;;;;;2.45;1.42;;;12.30;99.90;;;;;;4968228;28;20034;-89
2022/11/16 03:49:42;;;;;;;3.42;1.80;;;10.70;99.90;;;;;;4976331;28;20034;-91
2022/11/16 03:55:15;;;;;;;4.05;2.35;;;11.60;99.90;;;;;;4964770;28;20087;-85
2022/11/16 03:57:41;;;;;;;4.43;2.03;;;11.60;99.90;;;;;;4968648;28;20031;-88
2022/11/16 04:00:29;;;;;;;3.50;1.80;;;13.30;99.90;;;;;;4991866;28;20030;-90
2022/11/16 04:02:55;;;;;;;3.70;1.85;;;11.60;99.90;;;;;;4996939;28;20026;-87
2022/11/16 04:26:18;;;;;;;8.07;2.63;;;11.70;99.90;;;;;;4993087;28;20119;-84
2022/11/16 04:28:51;;;;;;;4.15;2.00;;;11.60;99.90;;;;;;4976619;28;20015;-83
2022/11/16 04:50:00;;;;;;;6.68;2.30;;;11.60;99.90;;;;;;4999593;28;20051;-87
2022/11/16 04:52:31;;;;;;;5.22;2.03;;;11.60;99.90;;;;;;4977391;28;20023;-87
2022/11/16 04:55:04;;;;;;;7.07;2.03;;;11.60;99.90;;;;;;4978075;28;20019;-89
2022/11/16 04:57:29;;;;;;;4.35;1.95;;;11.70;99.90;;;;;;4995554;28;20503;-88
2022/11/16 04:59:55;;;;;;;6.63;1.85;;;10.50;99.90;;;;;;4983001;28;20027;-87
2022/11/16 05:02:35;;;;;;;5.20;1.98;;;11.60;99.90;;;;;;4986864;28;20033;-88
2022/11/16 05:05:01;;;;;;;4.50;1.73;;;12.70;99.90;;;;;;4983427;28;20098;-90
2022/11/16 05:07:27;;;;;;;6.82;2.00;;;9.70;99.90;;;;;;5001886;28;20066;-87
2022/11/16 05:09:55;;;;;;;5.65;1.55;;;13.30;99.90;;;;;;4991284;28;20563;-89
2022/11/16 05:12:41;;;;;;;4.72;2.00;;;11.40;99.90;;;;;;4985449;28;20023;-86
2022/11/16 12:53:04;;;;;;;6.93;2.00;;;12.60;99.90;;;;;;5000278;28;20050;-84
2022/11/16 12:56:00;;;;;;;8.70;2.42;;;12.60;99.90;;;;;;4985542;28;20034;-86
2022/11/16 13:05:40;;;;;;;8.70;2.10;;;13.00;99.90;;;;;;4978201;28;20061;-85
2022/11/16 13:08:35;;;;;;;7.93;1.73;;;13.00;99.90;;;;;;4980352;28;20045;-83
2022/11/16 13:23:01;;;;;;;7.47;2.03;;;13.20;99.90;;;;;;4827992;29;20045;-83
2022/11/16 13:30:06;;;;;;;7.90;1.60;;;13.40;99.90;;;;;;4836175;29;20376;-85
2022/11/16 13:36:50;;;;;;;5.88;1.65;;;13.60;99.90;;;;;;4910446;29;20107;-83
2022/11/16 13:44:09;;;;;;;9.82;1.77;;;13.60;99.90;;;;;;4874581;29;20045;-85
2022/11/16 14:14:40;;;;;;;7.65;2.10;;;13.20;99.90;;;;;;4937388;29;20441;-86
2022/11/16 14:28:08;;;;;;;12.23;1.75;;;13.00;99.90;;;;;;4868036;29;20127;-84
2022/11/16 14:41:37;;;;;;;5.75;1.38;;;13.20;99.90;;;;;;4841422;29;20552;-87
2022/11/16 16:46:52;;;;;;;7.75;2.92;;;12.10;99.90;;;;;;4932437;29;20068;-83
2022/11/16 17:58:15;;;;;;;11.10;2.25;;;11.90;99.90;;;;;;1178969;23;20327;-82
2022/11/16 18:00:43;;;;;;;7.28;2.33;;;11.90;99.90;;;;;;4976615;28;20115;-83
2022/11/16 18:03:13;;;;;;;7.32;2.03;;;11.90;99.90;;;;;;4954176;28;20031;-83
2022/11/16 18:05:40;;;;;;;6.68;2.90;;;11.90;99.90;;;;;;4979697;28;20094;-82
2022/11/16 18:08:09;;;;;;;10.07;2.80;;;11.90;99.90;;;;;;4974172;28;20317;-83
2022/11/16 18:11:19;;;;;;;7.75;2.75;;;11.80;99.90;;;;;;4965756;28;20014;-84
2022/11/16 18:14:13;;;;;;;9.32;2.47;;;11.90;99.90;;;;;;5001806;28;20034;-84
2022/11/16 18:16:43;;;;;;;7.72;2.65;;;11.80;99.90;;;;;;4983569;28;20043;-85
2022/11/16 18:19:39;;;;;;;7.47;2.10;;;11.90;99.90;;;;;;4969319;28;20034;-84
2022/11/16 18:22:06;;;;;;;6.57;2.30;;;11.80;99.90;;;;;;4987330;28;20074;-84
2022/11/16 18:24:37;;;;;;;8.57;1.92;;;11.60;99.90;;;;;;4989664;28;20057;-82
2022/11/16 18:27:07;;;;;;;9.80;2.28;;;11.80;99.90;;;;;;4970388;28;20031;-82
2022/11/16 18:29:36;;;;;;;6.27;2.13;;;11.80;99.90;;;;;;4977305;28;20512;-82
2022/11/16 18:32:03;;;;;;;9.07;2.25;;;11.80;99.90;;;;;;4968013;28;20054;-81
2022/11/16 18:34:31;;;;;;;7.93;2.63;;;11.80;99.90;;;;;;4968990;28;20038;-80
2022/11/16 18:36:59;;;;;;;8.77;2.90;;;11.80;99.90;;;;;;4961643;28;20094;-83
2022/11/16 18:39:30;;;;;;;8.13;2.50;;;11.80;99.90;;;;;;4948824;28;20050;-84
2022/11/16 18:42:00;;;;;;;8.35;3.15;;;13.00;99.90;;;;;;4989537;28;20324;-84
2022/11/16 18:44:28;;;;;;;7.03;2.60;;;11.80;99.90;;;;;;4972903;28;20031;-82
2022/11/16 18:46:57;;;;;;;5.50;2.53;;;11.80;99.90;;;;;;4967561;28;20423;-82
2022/11/16 18:49:25;;;;;;;7.72;3.05;;;11.70;99.90;;;;;;4977612;28;20026;-84
2022/11/16 18:51:52;;;;;;;5.93;2.50;;;11.70;99.90;;;;;;4955401;28;20027;-82
2022/11/16 18:54:18;;;;;;;8.48;2.88;;;10.70;99.90;;;;;;4965544;28;20050;-84
2022/11/16 18:56:49;;;;;;;7.15;2.78;;;11.80;99.90;;;;;;4977468;28;20128;-82
2022/11/16 18:59:16;;;;;;;10.90;2.33;;;;;;;;;;4980148;28;20066;-83
2022/11/16 19:01:45;;;;;;;7.57;2.92;;;11.80;99.90;;;;;;4986645;28;20034;-85
2022/11/16 19:04:20;;;;;;;7.47;2.10;;;11.80;99.90;;;;;;4984323;28;20082;-85
2022/11/16 19:06:52;;;;;;;7.15;2.63;;;11.70;99.90;;;;;;4995984;28;20031;-86
2022/11/16 19:09:29;;;;;;;6.45;2.30;;;11.70;99.90;;;;;;4987466;28;20045;-85
2022/11/16 19:12:04;;;;;;;8.63;2.40;;;11.80;99.90;;;;;;4995440;28;20050;-85
2022/11/16 19:14:38;;;;;;;6.88;3.00;;;11.80;99.90;;;;;;4982067;28;20038;-85
2022/11/16 19:17:27;;;;;;;5.47;2.70;;;11.80;99.90;;;;;;4994755;28;20026;-86
2022/11/16 19:19:59;;;;;;;7.38;2.80;;;11.80;99.90;;;;;;4970459;28;20115;-83
2022/11/16 19:22:49;;;;;;;8.02;2.53;;;10.20;99.90;;;;;;4985371;28;20088;-83
2022/11/16 19:26:03;;;;;;;6.63;2.50;;;11.70;99.90;;;;;;4988488;28;20043;-83
2022/11/16 19:28:37;;;;;;;5.57;2.47;;;10.80;99.90;;;;;;4975174;28;20036;-83
2022/11/16 19:31:37;;;;;;;5.78;2.40;;;11.40;99.90;;;;;;4961502;28;20110;-84
2022/11/16 19:34:09;;;;;;;6.70;2.75;;;11.70;99.90;;;;;;4979154;28;20034;-83
2022/11/16 19:36:46;;;;;;;13.32;3.15;;;10.20;99.90;;;;;;5009032;28;20096;-82
2022/11/16 19:39:15;;;;;;;11.98;3.00;;;11.70;99.90;;;;;;4990218;28;20034;-84
2022/11/16 19:41:45;;;;;;;9.88;3.35;;;11.10;99.90;;;;;;4982731;28;20048;-82
2022/11/16 19:44:17;;;;;;;7.33;2.93;;;11.60;99.90;;;;;;5001208;28;20015;-84
2022/11/16 19:46:46;;;;;;;5.38;2.38;;;11.70;99.90;;;;;;4991052;28;20317;-86
2022/11/16 19:49:18;;;;;;;9.57;3.00;;;11.80;99.90;;;;;;4973517;28;20034;-84
2022/11/16 19:51:48;;;;;;;5.88;1.95;;;11.70;99.90;;;;;;4992515;28;20026;-84
2022/11/16 20:12:42;;;;;;;8.43;2.58;;;11.60;99.90;;;;;;4974339;28;20080;-84
